Dera Ismail Khan Weather



Dera Ismail Khan's Current Weather

Temprature 40.462o clear sky

clear sky

Rain: 0 %

Min Temprature40.462o
Max Temprature40.462o
Humidity23
Wind Speed0.66 m/h
Sun Rise05:12:19
Sun Set19:25:41
Current Time: 26-Jun-2019 15:16:33
Lat/Lon: 31.83, 70.91




Dera Ismail Khan's Geo Location



Dera Ismail Khan's Weather Forecast

Time Overall Temp Min Temp Max Temp Humidity Wind Speed Rain
26-Jun-2019 (Wed)
17:00:00 clear sky 40.850 40.850 40.850 18 5.84 m/h 0 %
20:00:00 clear sky 38.950 38.947 38.950 20 4.4 m/h 0 %
23:00:00 light rain 37.740 37.740 37.740 23 2.36 m/h 13 %
27-Jun-2019 (Thu)
02:00:00 clear sky 35.980 35.979 35.980 27 3.65 m/h 0 %
05:00:00 clear sky 34.465 34.465 34.465 28 4.28 m/h 0 %
08:00:00 clear sky 37.650 37.650 37.650 24 4.11 m/h 0 %
11:00:00 clear sky 40.874 40.874 40.874 19 4.08 m/h 0 %
14:00:00 clear sky 42.850 42.850 42.850 14 2.12 m/h 0 %
17:00:00 clear sky 43.880 43.880 43.880 12 5.25 m/h 0 %
20:00:00 clear sky 37.594 37.594 37.594 22 10.36 m/h 0 %
23:00:00 clear sky 36.435 36.435 36.435 23 3.31 m/h 0 %
28-Jun-2019 (Fri)
02:00:00 clear sky 35.428 35.428 35.428 25 3.76 m/h 0 %
05:00:00 clear sky 34.128 34.128 34.128 28 4.32 m/h 0 %
08:00:00 clear sky 36.669 36.669 36.669 24 5.36 m/h 0 %
11:00:00 clear sky 40.725 40.725 40.725 18 3.66 m/h 0 %
14:00:00 clear sky 43.531 43.531 43.531 14 3.49 m/h 0 %
17:00:00 clear sky 44.250 44.250 44.250 11 2.74 m/h 0 %
20:00:00 clear sky 41.850 41.850 41.850 16 1.15 m/h 0 %
23:00:00 clear sky 40.172 40.172 40.172 15 3.73 m/h 0 %
29-Jun-2019 (Sat)
02:00:00 clear sky 37.272 37.272 37.272 20 1.5 m/h 0 %
05:00:00 clear sky 36.309 36.309 36.309 20 2.78 m/h 0 %
08:00:00 clear sky 39.107 39.107 39.107 18 5.33 m/h 0 %
11:00:00 clear sky 43.350 43.350 43.350 13 3.72 m/h 0 %
14:00:00 clear sky 45.650 45.650 45.650 10 2.52 m/h 0 %
17:00:00 clear sky 46.491 46.491 46.491 8 2.85 m/h 0 %
20:00:00 clear sky 44.050 44.050 44.050 9 3.22 m/h 0 %
23:00:00 clear sky 41.550 41.550 41.550 14 4.53 m/h 0 %
30-Jun-2019 (Sun)
02:00:00 clear sky 38.356 38.356 38.356 20 1.65 m/h 0 %
05:00:00 clear sky 36.542 36.542 36.542 22 4.66 m/h 0 %
08:00:00 clear sky 39.272 39.272 39.272 18 5.15 m/h 0 %
11:00:00 clear sky 43.018 43.018 43.018 15 4.2 m/h 0 %
14:00:00 clear sky 45.409 45.409 45.409 12 2 m/h 0 %
17:00:00 clear sky 46.550 46.550 46.550 10 3.13 m/h 0 %
20:00:00 clear sky 43.850 43.850 43.850 12 2.64 m/h 0 %
23:00:00 clear sky 41.250 41.250 41.250 16 1.05 m/h 0 %
01-Jul-2019 (Mon)
02:00:00 clear sky 39.050 39.050 39.050 21 1.97 m/h 0 %
05:00:00 clear sky 37.335 37.335 37.335 24 1.68 m/h 0 %
08:00:00 clear sky 40.650 40.650 40.650 19 1.68 m/h 0 %
11:00:00 clear sky 44.950 44.950 44.950 13 2.83 m/h 0 %
14:00:00 clear sky 47.150 47.150 47.150 10 1.04 m/h 0 %


Dera Ismail Khan's Tourist Spots

Historical Places in Dera Ismail Khan

Famous Cities (60)